M/y Ava — MMPY8 — position and weather

sailwx.info

Track history (hours):
 
Tides and Currents Weather Stations Pressure Air Temp Water Temp Dewpoint Dewpoint Depression Visibility Wind Speed Wind Dir Waves Ship Positions

M/y Ava

Last reported at 2016-Jul-17 17:15 UTC. Time now 2016-Jul-23 21:15 UTC.
Position N 43°44' E 007°25'.

Length 40 m; draft 2.8 m.

Type: Pleasure craft. MMSI: 232358000.

Date/timePositionNaut miles runAvg speedWind from/ knotsBaromVisibWave heightAir tempDewpointWater temp
2016-Jul-17 17:15N 43°44' E 007°25'43 6.4
2016-Jul-17 10:28N 43°16' E 006°39'0 0.0
2016-Jul-17 09:32N 43°16' E 006°39'0 0.0
2016-Jul-17 03:31N 43°16' E 006°39'0 0.0
2016-Jul-16 21:29N 43°16' E 006°39'22 0.7
2016-Jul-15 13:27N 43°30' E 007°04'1311.1
2016-Jul-15 12:18N 43°38' E 007°17'11 0.6
2016-Jul-14 17:27N 43°34' E 007°32'11 5.0
2016-Jul-14 15:20N 43°42' E 007°23'2 2.1
2016-Jul-14 14:22N 43°41' E 007°21'0 0.0
2016-Jul-14 13:33N 43°41' E 007°21'0 0.0
2016-Jul-14 12:28N 43°41' E 007°21'0 0.0
2016-Jul-14 11:33N 43°41' E 007°21'  
Track history (hours):
 
Tides and Currents Weather Stations Pressure Air Temp Water Temp Dewpoint Dewpoint Depression Visibility Wind Speed Wind Dir Waves Ship Positions

M/y Ava

Last reported at 2016-Jul-17 17:15 UTC. Time now 2016-Jul-23 21:15 UTC.
Position N 43°44' E 007°25'.

Length 40 m; draft 2.8 m.

Type: Pleasure craft. MMSI: 232358000.

Date/timePositionNaut miles runAvg speedWind from/ knotsBaromVisibWave heightAir tempDewpointWater temp
2016-Jul-17 17:15N 43°44' E 007°25'43 6.4
2016-Jul-17 10:28N 43°16' E 006°39'0 0.0
2016-Jul-17 09:32N 43°16' E 006°39'0 0.0
2016-Jul-17 03:31N 43°16' E 006°39'0 0.0
2016-Jul-16 21:29N 43°16' E 006°39'22 0.7
2016-Jul-15 13:27N 43°30' E 007°04'1311.1
2016-Jul-15 12:18N 43°38' E 007°17'11 0.6
2016-Jul-14 17:27N 43°34' E 007°32'11 5.0
2016-Jul-14 15:20N 43°42' E 007°23'2 2.1
2016-Jul-14 14:22N 43°41' E 007°21'0 0.0
2016-Jul-14 13:33N 43°41' E 007°21'0 0.0
2016-Jul-14 12:28N 43°41' E 007°21'0 0.0
2016-Jul-14 11:33N 43°41' E 007°21'  

Dump ship's entire track history